world map with CDT marked

CDT - Airport

This information may not be accurate or current and is not valid for navigation or flight planning. No warranty of fitness for any purpose is made or implied.

flag of Valencianaflag of Spain

Donate via PayPal

Additional information is available on the NEW Great Circle Mapper

Location
City:  Castellón de la Plana, Valenciana, Spain
Name:Castellón Airport
ICAO / IATA:LECH / CDT

Details
Type:Airport (Aerodrome, Airfield)
Use:Public/Civil
Latitude:40°12'51"N (40.214167)
Longitude:0°04'25"E (0.073611)
Elevation:1181 ft (360 m)
Runways:1
Longest:8858 × 148 ft (2700 × 45 m)

Weather
METAR:LECH  041400Z AUTO 13007KT 100V170 9999 NCD 13/M03 Q1024
TAF:LECH  041100Z 0412/0512 VRB06KT 9999 FEW040 TX15/0413Z TN05/0506Z

Related Locations
Nearby:
Farthest:GIS: 12281 mi / 19764 km
Gisborne, GIS, NZ

Find:

   beyond  
but within

Other Information
Maps:
Sources:

  

Airport Diagram

Airport diagram for CDT

Airport diagram PDF

 


Great Circle Mapper   Great Circle Mapper
Great Circle Mapper FAQ   Great Circle Mapper FAQ
  Karl's Home Page
KLS˛   KLS˛ Home
   GC on Facebook
Airlines of the World   Airlines of the World
Donate via PayPal


Copyright © 2004-2019, Karl L. Swartz. All rights reserved.
All trademarks mentioned herein belong to their respective owners.

Please see credits for attribution and copyright information.

Karl Swartz <karl@kls2.com>
  Powered by FreeBSD
Valid HTML 4.01!
Labeled with ICRA
hCard Microformat
Geo Microformat